sensor_id;sensor_type;location;lat;lon;timestamp;pressure;altitude;pressure_sealevel;temperature;humidity
60258;BME280;46115;44.484;11.314;2023-04-27T00:03:31;100232.03;;;11.98;69.37
60258;BME280;46115;44.484;11.314;2023-04-27T00:07:34;100237.28;;;12.14;68.77
60258;BME280;46115;44.484;11.314;2023-04-27T00:11:36;100235.66;;;12.11;68.70
60258;BME280;46115;44.484;11.314;2023-04-27T00:15:40;100239.22;;;12.40;67.31
60258;BME280;46115;44.484;11.314;2023-04-27T00:19:42;100227.75;;;11.81;68.97
60258;BME280;46115;44.484;11.314;2023-04-27T00:23:45;100240.66;;;12.02;68.03
60258;BME280;46115;44.484;11.314;2023-04-27T00:27:47;100234.78;;;11.97;67.56
60258;BME280;46115;44.484;11.314;2023-04-27T00:31:51;100176.38;;;11.68;67.53
60258;BME280;46115;44.484;11.314;2023-04-27T00:35:58;100237.91;;;12.03;67.36
60258;BME280;46115;44.484;11.314;2023-04-27T00:40:03;100212.59;;;11.83;66.96
60258;BME280;46115;44.484;11.314;2023-04-27T00:44:06;100232.53;;;12.05;66.03
60258;BME280;46115;44.484;11.314;2023-04-27T00:48:10;100224.41;;;12.08;66.34
60258;BME280;46115;44.484;11.314;2023-04-27T00:52:15;100241.28;;;11.91;66.60
60258;BME280;46115;44.484;11.314;2023-04-27T00:56:17;100225.69;;;12.16;65.80
60258;BME280;46115;44.484;11.314;2023-04-27T01:00:20;100227.75;;;11.81;67.40
60258;BME280;46115;44.484;11.314;2023-04-27T01:04:24;100245.13;;;11.70;66.91
60258;BME280;46115;44.484;11.314;2023-04-27T01:08:28;100202.22;;;11.33;67.53
60258;BME280;46115;44.484;11.314;2023-04-27T01:12:31;100247.22;;;11.49;67.29
60258;BME280;46115;44.484;11.314;2023-04-27T01:16:33;100242.91;;;11.94;66.30
60258;BME280;46115;44.484;11.314;2023-04-27T01:20:38;100247.59;;;11.73;66.51
60258;BME280;46115;44.484;11.314;2023-04-27T01:24:45;100250.53;;;11.84;65.83
60258;BME280;46115;44.484;11.314;2023-04-27T01:28:47;100254.09;;;11.67;67.03
60258;BME280;46115;44.484;11.314;2023-04-27T01:32:50;100255.94;;;11.82;65.70
60258;BME280;46115;44.484;11.314;2023-04-27T01:36:53;100256.41;;;11.42;66.95
60258;BME280;46115;44.484;11.314;2023-04-27T01:40:57;100260.78;;;11.59;66.41
60258;BME280;46115;44.484;11.314;2023-04-27T01:45:02;100266.44;;;11.52;66.00
60258;BME280;46115;44.484;11.314;2023-04-27T01:49:06;100266.88;;;10.96;67.84
60258;BME280;46115;44.484;11.314;2023-04-27T01:53:08;100260.53;;;11.16;67.07
60258;BME280;46115;44.484;11.314;2023-04-27T01:57:12;100261.88;;;11.23;66.69
60258;BME280;46115;44.484;11.314;2023-04-27T02:01:15;100256.72;;;10.88;67.65
60258;BME280;46115;44.484;11.314;2023-04-27T02:05:18;100256.28;;;10.96;67.51
60258;BME280;46115;44.484;11.314;2023-04-27T02:09:22;100246.50;;;10.65;68.25
60258;BME280;46115;44.484;11.314;2023-04-27T02:13:26;100260.91;;;10.75;67.91
60258;BME280;46115;44.484;11.314;2023-04-27T02:17:28;100261.16;;;10.71;67.69
60258;BME280;46115;44.484;11.314;2023-04-27T02:21:31;100272.03;;;10.49;68.56
60258;BME280;46115;44.484;11.314;2023-04-27T02:25:35;100264.47;;;10.58;68.06
60258;BME280;46115;44.484;11.314;2023-04-27T02:29:39;100268.44;;;10.50;68.19
60258;BME280;46115;44.484;11.314;2023-04-27T02:33:41;100277.41;;;10.47;68.19
60258;BME280;46115;44.484;11.314;2023-04-27T02:37:44;100275.34;;;10.35;68.76
60258;BME280;46115;44.484;11.314;2023-04-27T02:41:49;100282.75;;;10.46;68.26
60258;BME280;46115;44.484;11.314;2023-04-27T02:45:53;100283.44;;;10.49;67.67
60258;BME280;46115;44.484;11.314;2023-04-27T02:49:55;100292.31;;;10.48;67.62
60258;BME280;46115;44.484;11.314;2023-04-27T02:53:58;100286.63;;;10.39;67.41
60258;BME280;46115;44.484;11.314;2023-04-27T02:58:01;100294.19;;;10.46;67.62
60258;BME280;46115;44.484;11.314;2023-04-27T03:02:05;100304.31;;;10.71;66.44
60258;BME280;46115;44.484;11.314;2023-04-27T03:06:07;100300.66;;;10.41;66.77
60258;BME280;46115;44.484;11.314;2023-04-27T03:10:09;100314.00;;;10.55;66.85
60258;BME280;46115;44.484;11.314;2023-04-27T03:14:12;100312.59;;;10.30;67.16
60258;BME280;46115;44.484;11.314;2023-04-27T03:18:16;100314.13;;;10.35;66.97
60258;BME280;46115;44.484;11.314;2023-04-27T03:22:19;100320.81;;;10.24;67.49
60258;BME280;46115;44.484;11.314;2023-04-27T03:26:22;100315.38;;;10.27;67.18
60258;BME280;46115;44.484;11.314;2023-04-27T03:30:25;100321.22;;;10.34;66.32
60258;BME280;46115;44.484;11.314;2023-04-27T03:34:28;100330.53;;;10.24;67.35
60258;BME280;46115;44.484;11.314;2023-04-27T03:38:32;100335.53;;;10.11;67.55
60258;BME280;46115;44.484;11.314;2023-04-27T03:42:35;100337.44;;;10.26;66.83
60258;BME280;46115;44.484;11.314;2023-04-27T03:46:38;100341.25;;;10.38;67.11
60258;BME280;46115;44.484;11.314;2023-04-27T03:50:42;100348.56;;;10.33;67.49
60258;BME280;46115;44.484;11.314;2023-04-27T03:54:44;100345.59;;;10.22;66.99
60258;BME280;46115;44.484;11.314;2023-04-27T03:58:47;100348.31;;;10.20;67.22
60258;BME280;46115;44.484;11.314;2023-04-27T04:02:54;100357.59;;;10.46;66.12
60258;BME280;46115;44.484;11.314;2023-04-27T04:06:58;100356.09;;;10.23;66.92
60258;BME280;46115;44.484;11.314;2023-04-27T04:11:01;100362.66;;;10.15;66.52
60258;BME280;46115;44.484;11.314;2023-04-27T04:15:04;100366.31;;;9.93;68.05
60258;BME280;46115;44.484;11.314;2023-04-27T04:19:07;100371.81;;;10.08;66.97
60258;BME280;46115;44.484;11.314;2023-04-27T04:23:12;100379.22;;;9.99;67.41
60258;BME280;46115;44.484;11.314;2023-04-27T04:27:15;100374.47;;;10.08;67.26
60258;BME280;46115;44.484;11.314;2023-04-27T04:31:17;100367.66;;;10.21;66.61
60258;BME280;46115;44.484;11.314;2023-04-27T04:35:21;100365.47;;;10.12;66.90
60258;BME280;46115;44.484;11.314;2023-04-27T04:39:29;100380.59;;;10.08;66.82
60258;BME280;46115;44.484;11.314;2023-04-27T04:43:31;100384.09;;;9.90;67.92
60258;BME280;46115;44.484;11.314;2023-04-27T04:47:37;100388.50;;;10.27;66.68
60258;BME280;46115;44.484;11.314;2023-04-27T04:51:41;100392.97;;;10.61;65.93
60258;BME280;46115;44.484;11.314;2023-04-27T04:55:45;100404.00;;;11.21;64.28
60258;BME280;46115;44.484;11.314;2023-04-27T04:59:47;100408.69;;;11.65;62.60
60258;BME280;46115;44.484;11.314;2023-04-27T05:03:50;100416.72;;;11.30;63.22
60258;BME280;46115;44.484;11.314;2023-04-27T05:07:52;100423.00;;;11.12;65.13
60258;BME280;46115;44.484;11.314;2023-04-27T05:11:56;100419.22;;;11.33;65.54
60258;BME280;46115;44.484;11.314;2023-04-27T05:15:58;100419.94;;;11.02;64.48
60258;BME280;46115;44.484;11.314;2023-04-27T05:20:00;100425.59;;;11.46;62.53
60258;BME280;46115;44.484;11.314;2023-04-27T05:24:05;100429.72;;;11.68;62.22
60258;BME280;46115;44.484;11.314;2023-04-27T05:28:09;100421.59;;;11.71;63.06
60258;BME280;46115;44.484;11.314;2023-04-27T05:32:12;100423.13;;;12.69;60.00
60258;BME280;46115;44.484;11.314;2023-04-27T05:36:14;100430.13;;;11.93;61.30
60258;BME280;46115;44.484;11.314;2023-04-27T05:40:16;100428.38;;;12.39;59.97
60258;BME280;46115;44.484;11.314;2023-04-27T05:44:20;100431.16;;;11.91;61.70
60258;BME280;46115;44.484;11.314;2023-04-27T05:48:25;100432.00;;;12.23;60.49
60258;BME280;46115;44.484;11.314;2023-04-27T05:52:27;100441.06;;;12.50;60.39
60258;BME280;46115;44.484;11.314;2023-04-27T05:56:31;100442.34;;;12.27;61.44
60258;BME280;46115;44.484;11.314;2023-04-27T06:00:34;100451.94;;;12.75;59.81
60258;BME280;46115;44.484;11.314;2023-04-27T06:04:38;100458.34;;;13.17;58.72
60258;BME280;46115;44.484;11.314;2023-04-27T06:08:40;100464.75;;;12.83;59.18
60258;BME280;46115;44.484;11.314;2023-04-27T06:12:42;100471.28;;;13.07;57.91
60258;BME280;46115;44.484;11.314;2023-04-27T06:16:46;100464.34;;;13.21;57.66
60258;BME280;46115;44.484;11.314;2023-04-27T06:20:48;100475.38;;;13.71;56.87
60258;BME280;46115;44.484;11.314;2023-04-27T06:24:50;100476.53;;;13.96;56.52
60258;BME280;46115;44.484;11.314;2023-04-27T06:28:52;100469.81;;;14.73;55.38
60258;BME280;46115;44.484;11.314;2023-04-27T06:32:56;100473.97;;;14.77;54.26
60258;BME280;46115;44.484;11.314;2023-04-27T06:36:59;100475.94;;;14.60;55.08
60258;BME280;46115;44.484;11.314;2023-04-27T06:41:02;100475.00;;;16.28;53.44
60258;BME280;46115;44.484;11.314;2023-04-27T06:45:05;100484.50;;;16.19;52.54
60258;BME280;46115;44.484;11.314;2023-04-27T06:49:09;100477.16;;;17.19;51.42
60258;BME280;46115;44.484;11.314;2023-04-27T06:53:11;100474.50;;;16.47;51.26
60258;BME280;46115;44.484;11.314;2023-04-27T06:57:14;100483.72;;;17.14;49.75
60258;BME280;46115;44.484;11.314;2023-04-27T07:01:16;100472.69;;;17.30;48.33
60258;BME280;46115;44.484;11.314;2023-04-27T07:05:20;100487.97;;;18.30;46.97
60258;BME280;46115;44.484;11.314;2023-04-27T07:09:23;100475.72;;;18.82;46.74
60258;BME280;46115;44.484;11.314;2023-04-27T07:13:25;100485.19;;;19.60;44.99
60258;BME280;46115;44.484;11.314;2023-04-27T07:17:27;100477.00;;;19.20;46.20
60258;BME280;46115;44.484;11.314;2023-04-27T07:21:31;100488.06;;;19.99;45.34
60258;BME280;46115;44.484;11.314;2023-04-27T07:25:33;100483.63;;;20.59;44.13
60258;BME280;46115;44.484;11.314;2023-04-27T07:29:36;100486.91;;;20.32;44.30
60258;BME280;46115;44.484;11.314;2023-04-27T07:33:38;100489.56;;;20.52;43.32
60258;BME280;46115;44.484;11.314;2023-04-27T07:37:42;100495.41;;;21.91;40.30
60258;BME280;46115;44.484;11.314;2023-04-27T07:41:45;100491.53;;;20.79;42.64
60258;BME280;46115;44.484;11.314;2023-04-27T07:45:48;100492.38;;;20.61;43.97
60258;BME280;46115;44.484;11.314;2023-04-27T07:49:50;100490.59;;;20.90;43.38
60258;BME280;46115;44.484;11.314;2023-04-27T07:53:54;100499.47;;;20.71;43.01
60258;BME280;46115;44.484;11.314;2023-04-27T07:57:56;100492.25;;;21.59;41.03
60258;BME280;46115;44.484;11.314;2023-04-27T08:01:59;100492.44;;;21.94;40.08
60258;BME280;46115;44.484;11.314;2023-04-27T08:06:01;100495.66;;;21.12;41.59
60258;BME280;46115;44.484;11.314;2023-04-27T08:10:07;100487.56;;;22.62;37.43
60258;BME280;46115;44.484;11.314;2023-04-27T08:14:09;100494.44;;;22.20;38.55
60258;BME280;46115;44.484;11.314;2023-04-27T08:18:13;100490.47;;;23.58;36.83
60258;BME280;46115;44.484;11.314;2023-04-27T08:22:17;100494.78;;;23.25;36.87
60258;BME280;46115;44.484;11.314;2023-04-27T08:26:21;100500.03;;;23.70;35.62
60258;BME280;46115;44.484;11.314;2023-04-27T08:30:24;100495.47;;;23.97;35.88
60258;BME280;46115;44.484;11.314;2023-04-27T08:34:27;100499.25;;;24.20;35.23
60258;BME280;46115;44.484;11.314;2023-04-27T08:38:29;100510.22;;;24.44;36.02
60258;BME280;46115;44.484;11.314;2023-04-27T08:42:34;100501.97;;;24.62;33.39
60258;BME280;46115;44.484;11.314;2023-04-27T08:46:37;100508.44;;;24.69;34.51
60258;BME280;46115;44.484;11.314;2023-04-27T08:50:42;100504.97;;;25.66;32.77
60258;BME280;46115;44.484;11.314;2023-04-27T08:54:45;100505.25;;;24.82;33.44
60258;BME280;46115;44.484;11.314;2023-04-27T08:58:48;100508.03;;;25.23;34.29
60258;BME280;46115;44.484;11.314;2023-04-27T09:02:51;100499.41;;;25.19;33.93
60258;BME280;46115;44.484;11.314;2023-04-27T09:06:53;100513.38;;;26.51;33.26
60258;BME280;46115;44.484;11.314;2023-04-27T09:10:56;100523.69;;;26.87;32.33
60258;BME280;46115;44.484;11.314;2023-04-27T09:15:00;100515.63;;;26.31;32.91
60258;BME280;46115;44.484;11.314;2023-04-27T09:19:03;100510.34;;;26.46;32.76
60258;BME280;46115;44.484;11.314;2023-04-27T09:23:06;100514.50;;;26.18;33.98
60258;BME280;46115;44.484;11.314;2023-04-27T09:27:08;100507.94;;;26.51;33.07
60258;BME280;46115;44.484;11.314;2023-04-27T09:31:12;100508.19;;;26.41;33.69
60258;BME280;46115;44.484;11.314;2023-04-27T09:35:21;100507.78;;;24.92;35.93
60258;BME280;46115;44.484;11.314;2023-04-27T09:39:24;100507.94;;;24.82;35.69
60258;BME280;46115;44.484;11.314;2023-04-27T09:43:27;100501.19;;;24.70;35.46
60258;BME280;46115;44.484;11.314;2023-04-27T09:47:32;100505.06;;;24.67;36.70
60258;BME280;46115;44.484;11.314;2023-04-27T09:51:35;100490.31;;;24.19;37.20
60258;BME280;46115;44.484;11.314;2023-04-27T09:55:39;100478.13;;;24.07;37.58
60258;BME280;46115;44.484;11.314;2023-04-27T09:59:57;100487.72;;;24.02;38.50
60258;BME280;46115;44.484;11.314;2023-04-27T10:04:31;100475.47;;;23.89;39.48
60258;BME280;46115;44.484;11.314;2023-04-27T10:08:37;100466.44;;;23.03;40.91
60258;BME280;46115;44.484;11.314;2023-04-27T10:12:40;100479.44;;;23.69;40.30
60258;BME280;46115;44.484;11.314;2023-04-27T10:16:43;100488.84;;;22.86;42.22
60258;BME280;46115;44.484;11.314;2023-04-27T10:20:48;100475.81;;;22.81;40.80
60258;BME280;46115;44.484;11.314;2023-04-27T10:24:52;100480.13;;;23.27;40.90
60258;BME280;46115;44.484;11.314;2023-04-27T10:28:56;100435.34;;;22.91;41.61
60258;BME280;46115;44.484;11.314;2023-04-27T10:33:04;100473.75;;;23.11;40.31
60258;BME280;46115;44.484;11.314;2023-04-27T10:37:09;100477.06;;;22.87;41.39
60258;BME280;46115;44.484;11.314;2023-04-27T10:41:13;100472.06;;;22.92;40.82
60258;BME280;46115;44.484;11.314;2023-04-27T10:45:26;100464.59;;;21.76;41.93
60258;BME280;46115;44.484;11.314;2023-04-27T10:49:28;100461.41;;;21.43;43.22
60258;BME280;46115;44.484;11.314;2023-04-27T10:53:34;100459.72;;;21.42;42.94
60258;BME280;46115;44.484;11.314;2023-04-27T10:57:45;100458.25;;;21.67;41.99
60258;BME280;46115;44.484;11.314;2023-04-27T11:01:47;100429.31;;;21.32;41.83
60258;BME280;46115;44.484;11.314;2023-04-27T11:05:58;100437.53;;;21.11;42.34
60258;BME280;46115;44.484;11.314;2023-04-27T11:10:03;100450.84;;;21.03;43.95
60258;BME280;46115;44.484;11.314;2023-04-27T11:14:05;100458.75;;;21.34;42.18
60258;BME280;46115;44.484;11.314;2023-04-27T11:18:08;100446.59;;;20.72;42.57
60258;BME280;46115;44.484;11.314;2023-04-27T11:22:10;100442.09;;;20.92;41.68
60258;BME280;46115;44.484;11.314;2023-04-27T11:26:17;100441.50;;;20.78;42.14
60258;BME280;46115;44.484;11.314;2023-04-27T11:30:20;100449.44;;;20.99;39.79
60258;BME280;46115;44.484;11.314;2023-04-27T11:34:24;100445.75;;;20.71;40.94
60258;BME280;46115;44.484;11.314;2023-04-27T11:38:32;100448.97;;;21.13;40.86
60258;BME280;46115;44.484;11.314;2023-04-27T11:42:36;100445.59;;;20.63;40.09
60258;BME280;46115;44.484;11.314;2023-04-27T11:46:42;100437.56;;;20.82;40.74
60258;BME280;46115;44.484;11.314;2023-04-27T11:50:45;100412.94;;;20.58;41.15
60258;BME280;46115;44.484;11.314;2023-04-27T11:54:48;100443.63;;;21.33;41.47
60258;BME280;46115;44.484;11.314;2023-04-27T11:58:54;100443.63;;;21.23;40.53
60258;BME280;46115;44.484;11.314;2023-04-27T12:02:56;100431.28;;;21.11;40.90
60258;BME280;46115;44.484;11.314;2023-04-27T12:07:00;100450.81;;;21.13;40.68
60258;BME280;46115;44.484;11.314;2023-04-27T12:11:02;100446.44;;;21.31;40.36
60258;BME280;46115;44.484;11.314;2023-04-27T12:15:07;100453.94;;;20.60;41.20
60258;BME280;46115;44.484;11.314;2023-04-27T12:19:10;100451.22;;;20.41;42.37
60258;BME280;46115;44.484;11.314;2023-04-27T12:23:12;100450.53;;;21.16;42.08
60258;BME280;46115;44.484;11.314;2023-04-27T12:27:14;100451.56;;;20.96;40.75
60258;BME280;46115;44.484;11.314;2023-04-27T12:31:18;100445.75;;;21.00;41.51
60258;BME280;46115;44.484;11.314;2023-04-27T12:35:24;100448.38;;;21.48;41.29
60258;BME280;46115;44.484;11.314;2023-04-27T12:39:26;100436.53;;;21.22;40.83
60258;BME280;46115;44.484;11.314;2023-04-27T12:43:29;100448.13;;;21.52;40.42
60258;BME280;46115;44.484;11.314;2023-04-27T12:47:34;100439.22;;;21.12;41.03
60258;BME280;46115;44.484;11.314;2023-04-27T12:51:36;100430.88;;;21.15;40.53
60258;BME280;46115;44.484;11.314;2023-04-27T12:55:39;100426.66;;;20.74;40.81
60258;BME280;46115;44.484;11.314;2023-04-27T12:59:41;100443.19;;;20.70;39.57
60258;BME280;46115;44.484;11.314;2023-04-27T13:03:46;100450.00;;;21.32;39.40
60258;BME280;46115;44.484;11.314;2023-04-27T13:07:48;100444.91;;;21.00;39.75
60258;BME280;46115;44.484;11.314;2023-04-27T13:11:51;100424.81;;;21.04;39.29
60258;BME280;46115;44.484;11.314;2023-04-27T13:15:54;100436.25;;;21.06;39.61
60258;BME280;46115;44.484;11.314;2023-04-27T13:19:59;100454.78;;;20.61;39.45
60258;BME280;46115;44.484;11.314;2023-04-27T13:24:02;100456.75;;;20.49;39.45
60258;BME280;46115;44.484;11.314;2023-04-27T13:28:04;100440.72;;;20.28;39.90
60258;BME280;46115;44.484;11.314;2023-04-27T13:32:07;100444.34;;;20.58;39.00
60258;BME280;46115;44.484;11.314;2023-04-27T13:36:11;100432.03;;;20.94;38.72
60258;BME280;46115;44.484;11.314;2023-04-27T13:40:14;100438.69;;;20.90;38.78
60258;BME280;46115;44.484;11.314;2023-04-27T13:44:16;100451.63;;;20.46;39.81
60258;BME280;46115;44.484;11.314;2023-04-27T13:48:19;100427.84;;;20.12;40.53
60258;BME280;46115;44.484;11.314;2023-04-27T13:52:23;100445.47;;;20.55;39.00
60258;BME280;46115;44.484;11.314;2023-04-27T13:56:25;100436.97;;;20.50;39.89
60258;BME280;46115;44.484;11.314;2023-04-27T14:00:28;100439.94;;;20.66;39.71
60258;BME280;46115;44.484;11.314;2023-04-27T14:04:33;100425.97;;;20.82;39.73
60258;BME280;46115;44.484;11.314;2023-04-27T14:08:37;100429.34;;;20.94;40.04
60258;BME280;46115;44.484;11.314;2023-04-27T14:12:39;100437.97;;;20.59;40.24
60258;BME280;46115;44.484;11.314;2023-04-27T14:16:41;100426.53;;;20.47;40.46
60258;BME280;46115;44.484;11.314;2023-04-27T14:20:44;100426.72;;;20.34;40.55
60258;BME280;46115;44.484;11.314;2023-04-27T14:24:48;100440.50;;;20.60;39.89
60258;BME280;46115;44.484;11.314;2023-04-27T14:28:50;100438.44;;;20.14;40.97
60258;BME280;46115;44.484;11.314;2023-04-27T14:32:55;100427.44;;;20.27;41.26
60258;BME280;46115;44.484;11.314;2023-04-27T14:36:57;100437.91;;;20.39;39.84
60258;BME280;46115;44.484;11.314;2023-04-27T14:41:01;100434.91;;;20.13;39.97
60258;BME280;46115;44.484;11.314;2023-04-27T14:45:04;100431.59;;;20.00;39.93
60258;BME280;46115;44.484;11.314;2023-04-27T14:49:07;100430.97;;;20.27;40.03
60258;BME280;46115;44.484;11.314;2023-04-27T14:53:09;100431.94;;;20.16;39.88
60258;BME280;46115;44.484;11.314;2023-04-27T14:57:13;100431.66;;;20.19;41.07
60258;BME280;46115;44.484;11.314;2023-04-27T15:01:16;100442.81;;;19.33;42.16
60258;BME280;46115;44.484;11.314;2023-04-27T15:05:18;100426.84;;;19.31;41.72
60258;BME280;46115;44.484;11.314;2023-04-27T15:09:21;100414.25;;;19.74;41.82
60258;BME280;46115;44.484;11.314;2023-04-27T15:13:24;100415.28;;;19.31;41.93
60258;BME280;46115;44.484;11.314;2023-04-27T15:17:27;100424.16;;;19.52;41.32
60258;BME280;46115;44.484;11.314;2023-04-27T15:21:29;100416.06;;;19.63;41.00
60258;BME280;46115;44.484;11.314;2023-04-27T15:25:32;100417.72;;;19.55;40.90
60258;BME280;46115;44.484;11.314;2023-04-27T15:29:36;100415.59;;;19.89;39.73
60258;BME280;46115;44.484;11.314;2023-04-27T15:33:38;100414.78;;;20.08;39.56
60258;BME280;46115;44.484;11.314;2023-04-27T15:37:41;100421.81;;;19.59;39.86
60258;BME280;46115;44.484;11.314;2023-04-27T15:41:43;100384.34;;;19.48;39.79
60258;BME280;46115;44.484;11.314;2023-04-27T15:45:47;100407.34;;;19.71;39.59
60258;BME280;46115;44.484;11.314;2023-04-27T15:49:49;100399.91;;;19.33;40.37
60258;BME280;46115;44.484;11.314;2023-04-27T15:53:51;100416.09;;;19.22;40.59
60258;BME280;46115;44.484;11.314;2023-04-27T15:57:54;100409.13;;;19.10;40.33
60258;BME280;46115;44.484;11.314;2023-04-27T16:01:57;100417.16;;;19.10;40.51
60258;BME280;46115;44.484;11.314;2023-04-27T16:06:00;100412.78;;;19.09;40.19
60258;BME280;46115;44.484;11.314;2023-04-27T16:10:03;100424.13;;;19.01;39.99
60258;BME280;46115;44.484;11.314;2023-04-27T16:14:05;100400.94;;;18.90;39.68
60258;BME280;46115;44.484;11.314;2023-04-27T16:18:09;100419.06;;;19.08;39.89
60258;BME280;46115;44.484;11.314;2023-04-27T16:22:11;100407.50;;;19.07;40.30
60258;BME280;46115;44.484;11.314;2023-04-27T16:26:14;100411.56;;;19.01;39.98
60258;BME280;46115;44.484;11.314;2023-04-27T16:30:16;100402.16;;;19.07;39.74
60258;BME280;46115;44.484;11.314;2023-04-27T16:34:20;100403.28;;;19.25;39.88
60258;BME280;46115;44.484;11.314;2023-04-27T16:38:22;100402.09;;;19.18;39.84
60258;BME280;46115;44.484;11.314;2023-04-27T16:42:25;100393.09;;;19.19;40.03
60258;BME280;46115;44.484;11.314;2023-04-27T16:46:27;100402.56;;;18.82;40.45
60258;BME280;46115;44.484;11.314;2023-04-27T16:50:31;100413.97;;;19.05;40.34
60258;BME280;46115;44.484;11.314;2023-04-27T16:54:33;100405.09;;;19.04;40.61
60258;BME280;46115;44.484;11.314;2023-04-27T16:58:36;100377.53;;;18.60;41.32
60258;BME280;46115;44.484;11.314;2023-04-27T17:02:38;100408.56;;;18.95;41.33
60258;BME280;46115;44.484;11.314;2023-04-27T17:06:42;100414.53;;;18.66;41.73
60258;BME280;46115;44.484;11.314;2023-04-27T17:10:47;100416.50;;;18.64;41.93
60258;BME280;46115;44.484;11.314;2023-04-27T17:14:49;100417.63;;;18.51;42.07
60258;BME280;46115;44.484;11.314;2023-04-27T17:18:52;100437.78;;;18.66;41.79
60258;BME280;46115;44.484;11.314;2023-04-27T17:22:56;100426.63;;;18.50;42.63
60258;BME280;46115;44.484;11.314;2023-04-27T17:26:59;100441.50;;;18.31;42.82
60258;BME280;46115;44.484;11.314;2023-04-27T17:31:01;100427.63;;;18.37;43.21
60258;BME280;46115;44.484;11.314;2023-04-27T17:35:04;100439.88;;;18.62;42.89
60258;BME280;46115;44.484;11.314;2023-04-27T17:39:08;100442.34;;;18.32;43.56
60258;BME280;46115;44.484;11.314;2023-04-27T17:43:12;100399.41;;;18.45;43.38
60258;BME280;46115;44.484;11.314;2023-04-27T17:47:14;100443.66;;;18.49;43.87
60258;BME280;46115;44.484;11.314;2023-04-27T17:51:18;100453.53;;;18.37;44.64
60258;BME280;46115;44.484;11.314;2023-04-27T17:55:23;100456.44;;;18.45;44.97
60258;BME280;46115;44.484;11.314;2023-04-27T17:59:25;100459.06;;;18.02;46.15
60258;BME280;46115;44.484;11.314;2023-04-27T18:03:28;100463.69;;;17.89;47.25
60258;BME280;46115;44.484;11.314;2023-04-27T18:07:33;100462.78;;;17.66;49.14
60258;BME280;46115;44.484;11.314;2023-04-27T18:11:37;100460.78;;;17.92;48.43
60258;BME280;46115;44.484;11.314;2023-04-27T18:15:39;100454.22;;;17.85;49.53
60258;BME280;46115;44.484;11.314;2023-04-27T18:19:42;100448.28;;;17.24;52.33
60258;BME280;46115;44.484;11.314;2023-04-27T18:23:44;100443.28;;;17.19;52.26
60258;BME280;46115;44.484;11.314;2023-04-27T18:27:48;100447.28;;;17.13;53.23
60258;BME280;46115;44.484;11.314;2023-04-27T18:31:55;100454.97;;;16.94;54.50
60258;BME280;46115;44.484;11.314;2023-04-27T18:35:58;100462.09;;;16.82;55.19
60258;BME280;46115;44.484;11.314;2023-04-27T18:40:00;100425.53;;;16.48;55.57
60258;BME280;46115;44.484;11.314;2023-04-27T18:44:07;100462.47;;;17.13;54.38
60258;BME280;46115;44.484;11.314;2023-04-27T18:48:09;100464.69;;;16.95;54.98
60258;BME280;46115;44.484;11.314;2023-04-27T18:52:11;100464.28;;;16.65;56.11
60258;BME280;46115;44.484;11.314;2023-04-27T18:56:14;100473.59;;;16.59;56.36
60258;BME280;46115;44.484;11.314;2023-04-27T22:06:20;100577.59;;;13.50;65.95
60258;BME280;46115;44.484;11.314;2023-04-27T22:10:23;100583.13;;;14.05;63.63
60258;BME280;46115;44.484;11.314;2023-04-27T22:14:25;100581.78;;;13.08;67.42
60258;BME280;46115;44.484;11.314;2023-04-27T22:18:28;100580.97;;;12.92;68.75
60258;BME280;46115;44.484;11.314;2023-04-27T22:22:31;100577.66;;;12.89;69.23
60258;BME280;46115;44.484;11.314;2023-04-27T22:26:33;100583.28;;;12.98;68.88
60258;BME280;46115;44.484;11.314;2023-04-27T22:30:36;100591.66;;;13.22;68.08
60258;BME280;46115;44.484;11.314;2023-04-27T22:34:38;100586.66;;;13.62;66.64
60258;BME280;46115;44.484;11.314;2023-04-27T22:38:42;100597.41;;;13.74;65.81
60258;BME280;46115;44.484;11.314;2023-04-27T22:42:44;100601.19;;;13.40;66.28
60258;BME280;46115;44.484;11.314;2023-04-27T22:46:46;100608.41;;;12.11;72.21
60258;BME280;46115;44.484;11.314;2023-04-27T22:50:49;100608.34;;;12.61;70.46
60258;BME280;46115;44.484;11.314;2023-04-27T22:54:52;100612.13;;;12.57;71.13
60258;BME280;46115;44.484;11.314;2023-04-27T22:58:54;100603.41;;;12.55;71.65
60258;BME280;46115;44.484;11.314;2023-04-27T23:02:57;100611.94;;;12.76;71.35
60258;BME280;46115;44.484;11.314;2023-04-27T23:06:59;100611.94;;;12.60;71.72
60258;BME280;46115;44.484;11.314;2023-04-27T23:11:03;100608.31;;;12.45;71.50
60258;BME280;46115;44.484;11.314;2023-04-27T23:15:06;100615.72;;;12.56;72.38
60258;BME280;46115;44.484;11.314;2023-04-27T23:19:09;100623.22;;;12.79;71.51
60258;BME280;46115;44.484;11.314;2023-04-27T23:23:11;100619.31;;;12.71;72.03
60258;BME280;46115;44.484;11.314;2023-04-27T23:27:15;100618.97;;;12.77;70.53
60258;BME280;46115;44.484;11.314;2023-04-27T23:31:17;100618.63;;;12.99;70.98
60258;BME280;46115;44.484;11.314;2023-04-27T23:35:19;100610.75;;;12.97;70.93
60258;BME280;46115;44.484;11.314;2023-04-27T23:39:22;100608.69;;;13.02;71.03
60258;BME280;46115;44.484;11.314;2023-04-27T23:43:25;100611.66;;;13.12;70.36
60258;BME280;46115;44.484;11.314;2023-04-27T23:47:28;100610.13;;;13.08;69.55
60258;BME280;46115;44.484;11.314;2023-04-27T23:51:31;100606.13;;;13.01;69.32
60258;BME280;46115;44.484;11.314;2023-04-27T23:55:33;100606.66;;;12.92;69.15
60258;BME280;46115;44.484;11.314;2023-04-27T23:59:37;100606.38;;;12.80;71.09
